createdAt,value
2023-03-29T00:02:04.652Z,-4.62
2023-03-29T00:04:31.612Z,-3.86
2023-03-29T00:07:04.533Z,-4.01
2023-03-29T00:09:33.267Z,-4.23
2023-03-29T00:12:01.212Z,-3.33
2023-03-29T00:14:30.775Z,-4.76
2023-03-29T00:16:59.117Z,-5.23
2023-03-29T00:19:26.363Z,-3.55
2023-03-29T00:21:53.295Z,-3.79
2023-03-29T00:24:21.481Z,-4.19
2023-03-29T00:26:48.617Z,-3.15
2023-03-29T00:29:16.093Z,-4.18
2023-03-29T00:31:45.936Z,-3.50
2023-03-29T00:34:13.357Z,-4.24
2023-03-29T00:36:40.610Z,-3.35
2023-03-29T00:39:07.684Z,-3.01
2023-03-29T00:41:34.805Z,-3.82
2023-03-29T00:44:04.187Z,-2.87
2023-03-29T00:46:31.566Z,-2.33
2023-03-29T00:49:15.999Z,-3.55
2023-03-29T00:51:43.731Z,-1.50
2023-03-29T00:54:15.223Z,-2.52
2023-03-29T00:56:46.571Z,-3.21
2023-03-29T00:59:23.365Z,-2.63
2023-03-29T01:01:54.359Z,-2.96
2023-03-29T01:04:36.402Z,-3.53
2023-03-29T01:07:13.648Z,-4.54
2023-03-29T01:09:45.348Z,-4.88
2023-03-29T01:12:18.436Z,-4.10
2023-03-29T01:14:51.808Z,-3.92
2023-03-29T01:17:22.281Z,-3.54
2023-03-29T01:19:58.362Z,-3.26
2023-03-29T01:22:40.124Z,-4.36
2023-03-29T01:25:15.667Z,-2.20
2023-03-29T01:27:51.730Z,-2.06
2023-03-29T01:30:42.775Z,-4.31
2023-03-29T01:33:24.061Z,-2.93
2023-03-29T01:36:03.562Z,-3.73
2023-03-29T01:38:48.685Z,-3.03
2023-03-29T01:41:15.824Z,-4.27
2023-03-29T01:44:00.510Z,-4.43
2023-03-29T01:46:43.970Z,-4.93
2023-03-29T01:49:24.372Z,-2.92
2023-03-29T01:52:03.708Z,-3.41
2023-03-29T01:54:44.601Z,-2.40
2023-03-29T01:57:14.468Z,-5.34
2023-03-29T01:59:44.639Z,-5.42
2023-03-29T02:02:14.956Z,-4.52
2023-03-29T02:04:50.167Z,-4.75
2023-03-29T02:07:21.148Z,-5.69
2023-03-29T02:09:52.753Z,-5.95
2023-03-29T02:12:20.839Z,-6.32
2023-03-29T02:14:47.579Z,-6.34
2023-03-29T02:17:19.112Z,-5.56
2023-03-29T02:19:50.209Z,-3.53
2023-03-29T02:22:25.244Z,-6.01
2023-03-29T02:24:59.282Z,-5.02
2023-03-29T02:27:30.052Z,-5.50
2023-03-29T02:29:58.322Z,-4.19
2023-03-29T02:32:42.253Z,-5.36
2023-03-29T02:35:22.002Z,-4.12
2023-03-29T02:37:54.478Z,-5.98
2023-03-29T02:40:23.998Z,-5.44
2023-03-29T02:42:50.880Z,-4.69
2023-03-29T02:45:18.815Z,-5.11
2023-03-29T02:47:51.994Z,-3.78
2023-03-29T02:50:20.395Z,-4.31
2023-03-29T02:52:59.288Z,-3.67
2023-03-29T02:55:34.545Z,-4.20
2023-03-29T02:58:10.380Z,-4.22
2023-03-29T03:00:48.675Z,-4.54
2023-03-29T03:03:15.753Z,-4.05
2023-03-29T03:05:45.080Z,-4.13
2023-03-29T03:08:14.447Z,-3.84
2023-03-29T03:10:41.337Z,-3.05
2023-03-29T03:13:08.541Z,-4.32
2023-03-29T03:15:41.134Z,-4.00
2023-03-29T03:18:09.716Z,-4.41
2023-03-29T03:20:36.614Z,-4.95
2023-03-29T03:23:03.496Z,-4.20
2023-03-29T03:25:31.749Z,-5.07
2023-03-29T03:27:58.906Z,-4.64
2023-03-29T03:30:25.686Z,-4.68
2023-03-29T03:33:17.332Z,-4.88
2023-03-29T03:36:06.435Z,-5.21
2023-03-29T03:38:36.392Z,-4.24
2023-03-29T03:41:05.579Z,-4.71
2023-03-29T03:43:34.343Z,-4.09
2023-03-29T03:46:02.063Z,-4.16
2023-03-29T03:48:30.139Z,-5.48
2023-03-29T03:51:17.118Z,-4.83
2023-03-29T03:53:44.824Z,-4.25
2023-03-29T03:56:14.939Z,-5.14
2023-03-29T03:59:00.310Z,-4.03
2023-03-29T04:01:30.197Z,-4.81
2023-03-29T04:04:08.386Z,-3.43
2023-03-29T04:06:35.321Z,-4.47
2023-03-29T04:09:23.369Z,-4.68
2023-03-29T04:12:03.820Z,-4.66
2023-03-29T04:14:31.915Z,-4.35
2023-03-29T04:17:11.251Z,-4.53
2023-03-29T04:19:48.858Z,-4.59
2023-03-29T04:22:15.931Z,-4.31
2023-03-29T04:24:43.397Z,-4.14
2023-03-29T04:27:46.398Z,-3.61
2023-03-29T04:30:42.588Z,-3.80
2023-03-29T04:33:15.383Z,-3.72
2023-03-29T04:35:47.096Z,-4.37
2023-03-29T04:38:17.008Z,-5.24
2023-03-29T04:40:46.098Z,-3.70
2023-03-29T04:43:26.887Z,-3.46
2023-03-29T04:46:07.872Z,-3.99
2023-03-29T04:48:58.138Z,-3.71
2023-03-29T04:51:34.165Z,-3.25
2023-03-29T04:54:01.249Z,-2.59
2023-03-29T04:56:28.324Z,-3.68
2023-03-29T04:59:21.382Z,-3.96
2023-03-29T05:01:48.528Z,-3.57
2023-03-29T05:04:15.779Z,-2.94
2023-03-29T05:06:55.821Z,-3.14
2023-03-29T05:09:22.634Z,-3.47
2023-03-29T05:11:51.580Z,-3.76
2023-03-29T05:14:20.711Z,-3.06
2023-03-29T05:16:48.203Z,-3.16
2023-03-29T05:19:15.572Z,-2.90
2023-03-29T05:21:46.264Z,-3.42
2023-03-29T05:24:17.405Z,-2.66
2023-03-29T05:27:06.684Z,-3.10
2023-03-29T05:29:36.785Z,-3.75
2023-03-29T05:32:23.127Z,-2.71
2023-03-29T05:34:50.407Z,-2.39
2023-03-29T05:37:17.898Z,-2.39
2023-03-29T05:40:05.638Z,-1.84
2023-03-29T05:42:38.906Z,-1.84
2023-03-29T05:45:09.104Z,-1.98
2023-03-29T05:47:36.219Z,-2.54
2023-03-29T05:50:04.005Z,-1.64
2023-03-29T05:52:31.617Z,-1.59
2023-03-29T05:54:58.365Z,-1.33
2023-03-29T05:57:26.104Z,-2.78
2023-03-29T05:59:53.405Z,-3.14
2023-03-29T06:02:21.511Z,-2.15
2023-03-29T06:04:52.210Z,-2.88
2023-03-29T06:07:25.531Z,-1.63
2023-03-29T06:10:11.220Z,-1.81
2023-03-29T06:12:41.928Z,-2.11
2023-03-29T06:15:10.230Z,-1.93
2023-03-29T06:17:51.718Z,-2.39
2023-03-29T06:20:19.108Z,-2.42
2023-03-29T06:22:52.589Z,-2.93
2023-03-29T06:25:19.904Z,-2.51
2023-03-29T06:27:49.209Z,-2.52
2023-03-29T06:30:19.022Z,-2.42
2023-03-29T06:32:50.554Z,-2.38
2023-03-29T06:35:37.954Z,-3.15
2023-03-29T06:38:08.361Z,-2.11
2023-03-29T06:41:11.158Z,-2.04
2023-03-29T06:44:10.796Z,-1.36
2023-03-29T06:46:57.751Z,-2.19
2023-03-29T06:49:24.788Z,-1.87
2023-03-29T06:52:20.792Z,-2.36
2023-03-29T06:54:47.817Z,-0.84
2023-03-29T06:57:14.884Z,-0.77
2023-03-29T06:59:42.397Z,-1.84
2023-03-29T07:02:34.627Z,-1.12
2023-03-29T07:05:13.503Z,-1.35
2023-03-29T07:07:59.851Z,0.53
2023-03-29T07:10:45.889Z,-0.14
2023-03-29T07:13:33.257Z,0.50
2023-03-29T07:16:03.967Z,0.22
2023-03-29T07:18:48.611Z,0.82
2023-03-29T07:21:41.456Z,1.04
2023-03-29T07:24:10.267Z,-0.14
2023-03-29T07:26:38.004Z,1.22
2023-03-29T07:29:06.362Z,0.90
2023-03-29T07:31:35.791Z,1.17
2023-03-29T07:34:27.193Z,0.11
2023-03-29T07:36:54.966Z,-0.63
2023-03-29T07:39:22.548Z,-0.79
2023-03-29T07:42:09.294Z,-1.15
2023-03-29T07:44:36.002Z,-0.58
2023-03-29T07:47:04.774Z,-0.82
2023-03-29T07:49:32.614Z,-0.65
2023-03-29T07:52:00.310Z,-0.67
2023-03-29T07:54:27.164Z,0.41
2023-03-29T07:57:08.918Z,-0.01
2023-03-29T07:59:41.757Z,1.07
2023-03-29T08:02:12.792Z,0.81
2023-03-29T08:04:47.740Z,0.31
2023-03-29T08:07:21.789Z,-0.64
2023-03-29T08:10:12.457Z,-0.02
2023-03-29T08:13:01.341Z,0.75
2023-03-29T08:15:39.192Z,-0.39
2023-03-29T08:18:09.822Z,1.43
2023-03-29T08:20:37.140Z,0.35
2023-03-29T08:23:04.257Z,1.94
2023-03-29T08:25:59.456Z,1.90
2023-03-29T08:28:26.718Z,2.20
2023-03-29T08:30:54.564Z,0.90
2023-03-29T08:33:22.263Z,1.20
2023-03-29T08:35:58.205Z,1.47
2023-03-29T08:38:29.270Z,2.12
2023-03-29T08:40:56.784Z,0.13
2023-03-29T08:43:37.788Z,1.42
2023-03-29T08:46:36.653Z,1.31
2023-03-29T08:49:19.991Z,0.67
2023-03-29T08:51:58.405Z,0.15
2023-03-29T08:54:29.892Z,0.29
2023-03-29T08:57:25.919Z,-0.63
2023-03-29T09:00:01.216Z,0.92
2023-03-29T09:02:34.030Z,1.62
2023-03-29T09:05:27.247Z,0.63
2023-03-29T09:08:17.927Z,1.04
2023-03-29T09:11:18.054Z,0.42
2023-03-29T09:14:06.142Z,1.09
2023-03-29T09:16:38.065Z,0.84
2023-03-29T09:19:50.852Z,2.16
2023-03-29T09:22:33.307Z,1.04
2023-03-29T09:25:41.044Z,2.24
2023-03-29T09:28:23.704Z,1.60
2023-03-29T09:31:04.101Z,0.98
2023-03-29T09:33:45.515Z,2.56
2023-03-29T09:36:42.231Z,1.58
2023-03-29T09:39:13.254Z,2.31
2023-03-29T09:41:50.480Z,2.76
2023-03-29T09:44:30.701Z,2.30
2023-03-29T09:47:24.852Z,2.53
2023-03-29T09:49:57.844Z,3.22
2023-03-29T09:52:25.487Z,1.97
2023-03-29T09:55:06.209Z,1.94
2023-03-29T09:57:45.400Z,2.44
2023-03-29T10:00:14.829Z,3.39
2023-03-29T10:02:42.304Z,2.25
2023-03-29T10:05:16.802Z,3.14
2023-03-29T10:07:48.971Z,3.36
2023-03-29T10:10:27.902Z,2.45
2023-03-29T10:13:00.653Z,2.69
2023-03-29T10:15:30.802Z,2.55
2023-03-29T10:18:05.684Z,4.93
2023-03-29T10:20:37.721Z,2.90
2023-03-29T10:23:09.405Z,3.82
2023-03-29T10:25:42.977Z,2.74
2023-03-29T10:28:21.555Z,4.76
2023-03-29T10:30:55.273Z,3.38
2023-03-29T10:33:24.760Z,2.13
2023-03-29T10:35:52.072Z,4.85
2023-03-29T10:38:22.856Z,3.46
2023-03-29T10:40:51.872Z,4.38
2023-03-29T10:43:38.589Z,4.22
2023-03-29T10:46:11.575Z,3.70
2023-03-29T10:48:39.252Z,4.64
2023-03-29T10:51:07.636Z,4.75
2023-03-29T10:53:38.061Z,4.00
2023-03-29T10:56:23.343Z,4.91
2023-03-29T10:58:52.903Z,5.59
2023-03-29T11:01:37.483Z,4.31
2023-03-29T11:04:19.039Z,7.28
2023-03-29T11:06:45.759Z,6.88
2023-03-29T11:09:47.412Z,6.07
2023-03-29T11:12:16.111Z,5.76
2023-03-29T11:15:16.338Z,5.90
2023-03-29T11:17:51.053Z,6.46
2023-03-29T11:20:36.822Z,6.40
2023-03-29T11:23:13.110Z,7.68
2023-03-29T11:26:04.276Z,11.54
2023-03-29T11:28:36.034Z,10.03
2023-03-29T11:31:28.789Z,11.22
2023-03-29T11:34:04.702Z,7.01
2023-03-29T11:36:58.796Z,5.97
2023-03-29T11:39:54.756Z,7.18
2023-03-29T11:42:28.675Z,9.24
2023-03-29T11:44:58.685Z,9.36
2023-03-29T11:47:46.653Z,9.39
2023-03-29T11:50:25.764Z,7.23
2023-03-29T11:52:59.200Z,8.84
2023-03-29T11:55:38.690Z,8.06
2023-03-29T11:58:15.850Z,9.66
2023-03-29T12:00:52.017Z,8.50
2023-03-29T12:03:41.427Z,8.05
2023-03-29T12:06:21.634Z,10.06
2023-03-29T12:08:56.851Z,8.94
2023-03-29T12:11:33.663Z,10.57
2023-03-29T12:14:24.055Z,10.31
2023-03-29T12:17:05.661Z,9.33
2023-03-29T12:19:50.466Z,12.13
2023-03-29T12:22:17.248Z,7.59
2023-03-29T12:24:48.695Z,7.99
2023-03-29T12:27:20.670Z,11.34
2023-03-29T12:30:09.000Z,10.24
2023-03-29T12:32:38.775Z,8.94
2023-03-29T12:35:31.203Z,10.57
2023-03-29T12:38:22.372Z,7.55
2023-03-29T12:41:37.152Z,7.73
2023-03-29T12:44:24.022Z,7.65
2023-03-29T12:46:59.197Z,8.69
2023-03-29T12:49:38.579Z,9.05
2023-03-29T12:52:37.263Z,9.97
2023-03-29T12:55:18.105Z,9.60
2023-03-29T12:58:01.363Z,9.92
2023-03-29T13:00:44.991Z,6.54
2023-03-29T13:03:27.221Z,6.78
2023-03-29T13:06:06.345Z,7.94
2023-03-29T13:08:42.724Z,9.18
2023-03-29T13:11:28.291Z,9.19
2023-03-29T13:13:55.764Z,9.08
2023-03-29T13:16:31.450Z,8.25
2023-03-29T13:19:07.208Z,7.78
2023-03-29T13:21:37.649Z,10.73
2023-03-29T13:24:34.580Z,8.90
2023-03-29T13:27:37.304Z,9.60
2023-03-29T13:30:26.699Z,7.02
2023-03-29T13:33:14.735Z,9.53
2023-03-29T13:36:00.507Z,8.72
2023-03-29T13:38:32.149Z,11.93
2023-03-29T13:41:07.365Z,11.34
2023-03-29T13:43:49.769Z,8.85
2023-03-29T13:46:22.558Z,8.58
2023-03-29T13:48:54.993Z,7.74
2023-03-29T13:51:31.793Z,8.67
2023-03-29T13:54:08.203Z,8.51
2023-03-29T13:56:43.668Z,9.01
2023-03-29T13:59:19.682Z,8.37
2023-03-29T14:01:57.976Z,7.97
2023-03-29T14:04:28.685Z,8.51
2023-03-29T14:06:56.828Z,7.52
2023-03-29T14:09:30.125Z,7.42
2023-03-29T14:11:58.902Z,6.84
2023-03-29T14:14:27.088Z,7.44
2023-03-29T14:16:56.562Z,7.36
2023-03-29T14:19:37.904Z,7.73
2023-03-29T14:22:13.028Z,6.06
2023-03-29T14:24:48.140Z,6.72
2023-03-29T14:27:16.335Z,5.39
2023-03-29T14:29:46.944Z,5.52
2023-03-29T14:32:17.012Z,5.43
2023-03-29T14:34:48.401Z,5.25
2023-03-29T14:37:23.023Z,6.11
2023-03-29T14:39:51.198Z,6.41
2023-03-29T14:42:23.995Z,8.17
2023-03-29T14:44:51.238Z,7.99
2023-03-29T14:47:30.409Z,7.21
2023-03-29T14:50:00.978Z,7.63
2023-03-29T14:52:30.489Z,6.11
2023-03-29T14:55:01.992Z,5.95
2023-03-29T14:57:35.803Z,6.64
2023-03-29T15:00:17.359Z,5.91
2023-03-29T15:03:02.447Z,5.87
2023-03-29T15:05:32.779Z,5.85
2023-03-29T15:08:01.829Z,5.39
2023-03-29T15:10:32.331Z,6.62
2023-03-29T15:13:02.309Z,6.39
2023-03-29T15:15:31.666Z,6.08
2023-03-29T15:20:33.589Z,5.78
2023-03-29T15:23:22.010Z,5.67
2023-03-29T15:26:06.827Z,5.79
2023-03-29T15:28:35.893Z,6.00
2023-03-29T15:31:10.719Z,5.44
2023-03-29T15:33:39.802Z,4.67
2023-03-29T15:36:09.698Z,6.24
2023-03-29T15:38:43.854Z,4.17
2023-03-29T15:41:11.734Z,3.33
2023-03-29T15:43:38.524Z,4.11
2023-03-29T15:46:05.938Z,3.52
2023-03-29T15:48:33.886Z,3.11
2023-03-29T15:51:05.462Z,4.69
2023-03-29T15:53:33.091Z,4.56
2023-03-29T15:56:02.232Z,2.45
2023-03-29T15:58:32.472Z,3.62
2023-03-29T16:01:11.545Z,3.46
2023-03-29T16:03:39.894Z,3.26
2023-03-29T16:06:10.225Z,3.35
2023-03-29T16:08:37.320Z,3.40
2023-03-29T16:11:05.299Z,3.92
2023-03-29T16:13:32.782Z,3.00
2023-03-29T16:15:59.523Z,4.19
2023-03-29T16:18:26.483Z,5.56
2023-03-29T16:20:53.158Z,5.06
2023-03-29T16:23:19.881Z,4.59
2023-03-29T16:25:46.928Z,4.78
2023-03-29T16:28:13.714Z,4.31
2023-03-29T16:30:40.626Z,6.24
2023-03-29T16:33:08.653Z,4.14
2023-03-29T16:35:40.191Z,4.70
2023-03-29T16:38:07.863Z,3.98
2023-03-29T16:40:35.662Z,4.40
2023-03-29T16:43:03.006Z,2.73
2023-03-29T16:45:29.752Z,2.36
2023-03-29T16:47:57.253Z,3.10
2023-03-29T16:50:24.288Z,2.06
2023-03-29T16:52:54.309Z,2.89
2023-03-29T16:55:21.434Z,3.21
2023-03-29T16:57:48.964Z,3.11
2023-03-29T17:00:19.641Z,2.11
2023-03-29T17:02:49.780Z,4.48
2023-03-29T17:05:18.458Z,2.49
2023-03-29T17:07:46.162Z,4.06
2023-03-29T17:10:14.113Z,4.75
2023-03-29T17:12:41.042Z,4.66
2023-03-29T17:15:08.268Z,3.85
2023-03-29T17:17:35.853Z,3.23
2023-03-29T17:20:02.611Z,3.83
2023-03-29T17:22:29.283Z,4.55
2023-03-29T17:24:56.025Z,3.24
2023-03-29T17:27:23.206Z,2.52
2023-03-29T17:29:49.961Z,3.87
2023-03-29T17:32:17.061Z,3.65
2023-03-29T17:34:43.782Z,3.57
2023-03-29T17:37:10.836Z,1.52
2023-03-29T17:39:37.964Z,3.12
2023-03-29T17:42:06.818Z,2.66
2023-03-29T17:44:33.669Z,3.52
2023-03-29T17:47:01.201Z,4.50
2023-03-29T17:49:28.094Z,3.97
2023-03-29T17:51:55.153Z,4.19
2023-03-29T17:54:22.247Z,2.98
2023-03-29T17:56:49.148Z,3.51
2023-03-29T17:59:16.475Z,3.50
2023-03-29T18:01:43.594Z,2.65
2023-03-29T18:04:10.544Z,3.86
2023-03-29T18:06:37.995Z,2.65
2023-03-29T18:09:05.664Z,3.54
2023-03-29T18:11:32.640Z,3.49
2023-03-29T18:14:01.105Z,3.44
2023-03-29T18:16:28.410Z,2.79
2023-03-29T18:18:55.294Z,2.46
2023-03-29T18:21:22.478Z,3.14
2023-03-29T18:23:54.365Z,3.88
2023-03-29T18:26:23.276Z,4.59
2023-03-29T18:28:50.985Z,4.94
2023-03-29T18:31:19.962Z,3.24
2023-03-29T18:33:47.686Z,3.33
2023-03-29T18:36:15.006Z,3.39
2023-03-29T18:38:43.312Z,2.76
2023-03-29T18:41:12.423Z,3.13
2023-03-29T18:43:40.676Z,2.82
2023-03-29T18:46:08.481Z,3.14
2023-03-29T18:48:39.038Z,4.01
2023-03-29T18:51:07.749Z,4.27
2023-03-29T18:53:36.126Z,2.23
2023-03-29T18:56:04.496Z,1.93
2023-03-29T18:58:31.711Z,1.96
2023-03-29T19:01:03.722Z,1.89
2023-03-29T19:03:31.903Z,1.77
2023-03-29T19:05:58.804Z,2.18
2023-03-29T19:08:26.514Z,1.92
2023-03-29T19:11:01.375Z,2.70
2023-03-29T19:13:28.203Z,2.27
2023-03-29T19:15:55.047Z,2.09
2023-03-29T19:18:22.185Z,2.11
2023-03-29T19:20:51.328Z,1.83
2023-03-29T19:23:18.519Z,1.55
2023-03-29T19:26:05.539Z,1.74
2023-03-29T19:28:33.801Z,2.04
2023-03-29T19:31:02.342Z,1.33
2023-03-29T19:33:29.697Z,1.89
2023-03-29T19:35:56.878Z,1.93
2023-03-29T19:38:24.610Z,1.44
2023-03-29T19:40:51.861Z,1.36
2023-03-29T19:43:20.714Z,2.51
2023-03-29T19:45:49.711Z,3.71
2023-03-29T19:50:47.253Z,3.42
2023-03-29T19:53:14.104Z,3.81
2023-03-29T19:55:42.544Z,4.46
2023-03-29T19:58:09.821Z,4.00
2023-03-29T20:00:38.840Z,1.31
2023-03-29T20:03:09.467Z,2.13
2023-03-29T20:05:37.638Z,1.92
2023-03-29T20:08:04.924Z,2.08
2023-03-29T20:10:31.639Z,1.61
2023-03-29T20:12:58.448Z,1.08
2023-03-29T20:15:26.167Z,1.96
2023-03-29T20:17:57.046Z,2.07
2023-03-29T20:20:25.543Z,2.24
2023-03-29T20:22:58.087Z,0.98
2023-03-29T20:25:25.846Z,1.36
2023-03-29T20:27:53.637Z,2.94
2023-03-29T20:30:20.657Z,1.92
2023-03-29T20:32:47.709Z,0.81
2023-03-29T20:35:14.525Z,1.31
2023-03-29T20:37:41.667Z,2.01
2023-03-29T20:40:11.406Z,2.61
2023-03-29T20:42:38.941Z,3.46
2023-03-29T20:45:06.580Z,2.14
2023-03-29T20:47:34.492Z,3.51
2023-03-29T20:50:01.810Z,2.95
2023-03-29T20:52:28.530Z,2.70
2023-03-29T20:54:55.396Z,2.68
2023-03-29T20:57:22.313Z,3.81
2023-03-29T20:59:49.445Z,3.20
2023-03-29T21:02:21.766Z,1.35
2023-03-29T21:04:53.835Z,1.92
2023-03-29T21:07:21.754Z,2.14
2023-03-29T21:09:50.014Z,2.19
2023-03-29T21:12:17.470Z,2.65
2023-03-29T21:14:44.846Z,1.87
2023-03-29T21:17:11.909Z,1.21
2023-03-29T21:19:39.885Z,2.62
2023-03-29T21:22:06.960Z,4.44
2023-03-29T21:24:34.218Z,2.48
2023-03-29T21:27:01.033Z,3.25
2023-03-29T21:29:28.389Z,3.80
2023-03-29T21:31:55.903Z,3.09
2023-03-29T21:34:22.843Z,3.06
2023-03-29T21:36:50.034Z,1.01
2023-03-29T21:39:16.956Z,1.57
2023-03-29T21:41:43.838Z,2.09
2023-03-29T21:44:11.181Z,1.55
2023-03-29T21:46:38.505Z,1.93
2023-03-29T21:49:05.810Z,2.35
2023-03-29T21:51:32.971Z,1.78
2023-03-29T21:53:59.730Z,1.91
2023-03-29T21:56:26.497Z,2.35
2023-03-29T21:58:53.633Z,2.77
2023-03-29T22:01:20.775Z,2.65
2023-03-29T22:03:47.660Z,3.21
2023-03-29T22:06:14.520Z,3.32
2023-03-29T22:08:41.300Z,4.56
2023-03-29T22:11:11.489Z,3.55
2023-03-29T22:13:39.465Z,4.52
2023-03-29T22:16:18.555Z,3.54
2023-03-29T22:18:49.701Z,3.39
2023-03-29T22:21:20.321Z,4.82
2023-03-29T22:23:49.827Z,4.59
2023-03-29T22:26:18.675Z,4.57
2023-03-29T22:28:45.900Z,3.64
2023-03-29T22:31:15.093Z,2.92
2023-03-29T22:33:42.771Z,2.26
2023-03-29T22:36:17.283Z,2.08
2023-03-29T22:38:45.438Z,0.38
2023-03-29T22:41:14.109Z,0.38
2023-03-29T22:43:41.430Z,0.54
2023-03-29T22:46:10.272Z,1.77
2023-03-29T22:48:37.235Z,1.66
2023-03-29T22:51:05.550Z,2.15
2023-03-29T22:53:34.498Z,2.44
2023-03-29T22:56:01.409Z,1.86
2023-03-29T22:58:29.461Z,1.83
2023-03-29T23:00:57.858Z,2.86
2023-03-29T23:03:25.300Z,2.62
2023-03-29T23:05:57.941Z,1.27
2023-03-29T23:08:26.327Z,1.04
2023-03-29T23:10:53.256Z,1.04
2023-03-29T23:13:24.558Z,2.22
2023-03-29T23:15:54.493Z,2.02
2023-03-29T23:18:23.597Z,1.68
2023-03-29T23:20:52.573Z,1.98
2023-03-29T23:23:20.373Z,0.59
2023-03-29T23:25:49.318Z,0.95
2023-03-29T23:28:21.843Z,1.60
2023-03-29T23:31:00.613Z,1.33
2023-03-29T23:33:33.655Z,1.77
2023-03-29T23:36:07.467Z,1.59
2023-03-29T23:38:36.581Z,1.59
2023-03-29T23:41:06.551Z,0.84
2023-03-29T23:43:37.315Z,1.51
2023-03-29T23:46:08.604Z,2.00
2023-03-29T23:48:35.682Z,0.85
2023-03-29T23:51:03.558Z,2.24
2023-03-29T23:53:31.502Z,2.43
2023-03-29T23:56:03.202Z,1.73
2023-03-29T23:58:36.081Z,1.21
